Aviation Digital Data Service (ADDS)

Output produced by METARs form (1713 UTC 23 July 2018)
found at http://aviationweather.gov/adds/metars/
 
KLBX 231653Z AUTO 26006KT 10SM CLR 33/23 A2992 RMK AO2 SLP132 T03280228